sensor_id;sensor_type;location;lat;lon;timestamp;temperature;humidity
15203;DHT22;7702;51.046;5.184;2023-08-06T00:01:55;15.50;99.90
15203;DHT22;7702;51.046;5.184;2023-08-06T00:04:21;15.50;99.90
15203;DHT22;7702;51.046;5.184;2023-08-06T00:06:47;15.50;99.90
15203;DHT22;7702;51.046;5.184;2023-08-06T00:09:13;15.50;99.90
15203;DHT22;7702;51.046;5.184;2023-08-06T00:11:39;15.50;99.90
15203;DHT22;7702;51.046;5.184;2023-08-06T00:14:06;15.50;99.90
15203;DHT22;7702;51.046;5.184;2023-08-06T00:16:32;15.50;99.90
15203;DHT22;7702;51.046;5.184;2023-08-06T00:18:57;15.50;99.90
15203;DHT22;7702;51.046;5.184;2023-08-06T00:21:24;15.50;99.90
15203;DHT22;7702;51.046;5.184;2023-08-06T00:23:49;15.50;99.90
15203;DHT22;7702;51.046;5.184;2023-08-06T00:26:15;15.50;99.90
15203;DHT22;7702;51.046;5.184;2023-08-06T00:28:41;15.40;99.90
15203;DHT22;7702;51.046;5.184;2023-08-06T00:31:06;15.50;99.90
15203;DHT22;7702;51.046;5.184;2023-08-06T00:33:32;15.40;99.90
15203;DHT22;7702;51.046;5.184;2023-08-06T00:35:58;15.30;99.90
15203;DHT22;7702;51.046;5.184;2023-08-06T00:38:23;15.40;99.90
15203;DHT22;7702;51.046;5.184;2023-08-06T00:40:49;15.30;99.90
15203;DHT22;7702;51.046;5.184;2023-08-06T00:43:14;15.30;99.90
15203;DHT22;7702;51.046;5.184;2023-08-06T00:45:40;15.30;99.90
15203;DHT22;7702;51.046;5.184;2023-08-06T00:48:06;15.30;99.90
15203;DHT22;7702;51.046;5.184;2023-08-06T00:50:32;15.30;99.90
15203;DHT22;7702;51.046;5.184;2023-08-06T00:52:59;15.40;99.90
15203;DHT22;7702;51.046;5.184;2023-08-06T00:55:24;15.40;99.90
15203;DHT22;7702;51.046;5.184;2023-08-06T00:57:50;15.30;99.90
15203;DHT22;7702;51.046;5.184;2023-08-06T01:00:19;15.30;99.90
15203;DHT22;7702;51.046;5.184;2023-08-06T01:02:46;15.30;99.90
15203;DHT22;7702;51.046;5.184;2023-08-06T01:05:11;15.30;99.90
15203;DHT22;7702;51.046;5.184;2023-08-06T01:13:16;15.20;99.90
15203;DHT22;7702;51.046;5.184;2023-08-06T01:15:49;15.30;99.90
15203;DHT22;7702;51.046;5.184;2023-08-06T01:18:15;15.30;99.90
15203;DHT22;7702;51.046;5.184;2023-08-06T01:20:41;15.30;99.90
15203;DHT22;7702;51.046;5.184;2023-08-06T01:23:07;15.30;99.90
15203;DHT22;7702;51.046;5.184;2023-08-06T01:28:39;15.20;99.90
15203;DHT22;7702;51.046;5.184;2023-08-06T01:31:08;15.20;99.90
15203;DHT22;7702;51.046;5.184;2023-08-06T01:33:38;15.20;99.90
15203;DHT22;7702;51.046;5.184;2023-08-06T01:36:07;15.20;99.90
15203;DHT22;7702;51.046;5.184;2023-08-06T01:38:33;15.20;99.90
15203;DHT22;7702;51.046;5.184;2023-08-06T01:40:59;15.20;99.90
15203;DHT22;7702;51.046;5.184;2023-08-06T01:43:25;15.20;99.90
15203;DHT22;7702;51.046;5.184;2023-08-06T01:45:51;15.20;99.90
15203;DHT22;7702;51.046;5.184;2023-08-06T01:48:16;15.20;99.90
15203;DHT22;7702;51.046;5.184;2023-08-06T01:50:44;15.20;99.90
15203;DHT22;7702;51.046;5.184;2023-08-06T01:53:10;15.20;99.90
15203;DHT22;7702;51.046;5.184;2023-08-06T01:55:36;15.20;99.90
15203;DHT22;7702;51.046;5.184;2023-08-06T01:58:01;15.20;99.90
15203;DHT22;7702;51.046;5.184;2023-08-06T02:00:27;15.20;99.90
15203;DHT22;7702;51.046;5.184;2023-08-06T02:02:54;15.20;99.90
15203;DHT22;7702;51.046;5.184;2023-08-06T02:05:19;15.20;99.90
15203;DHT22;7702;51.046;5.184;2023-08-06T02:07:46;15.20;99.90
15203;DHT22;7702;51.046;5.184;2023-08-06T02:10:12;15.20;99.90
15203;DHT22;7702;51.046;5.184;2023-08-06T02:12:37;15.20;99.90
15203;DHT22;7702;51.046;5.184;2023-08-06T02:15:04;15.20;99.90
15203;DHT22;7702;51.046;5.184;2023-08-06T02:17:30;15.30;99.90
15203;DHT22;7702;51.046;5.184;2023-08-06T02:19:56;15.30;99.90
15203;DHT22;7702;51.046;5.184;2023-08-06T02:22:22;15.30;99.90
15203;DHT22;7702;51.046;5.184;2023-08-06T02:24:49;15.30;99.90
15203;DHT22;7702;51.046;5.184;2023-08-06T02:27:15;15.30;99.90
15203;DHT22;7702;51.046;5.184;2023-08-06T02:29:40;15.30;99.90
15203;DHT22;7702;51.046;5.184;2023-08-06T02:32:07;15.30;99.90
15203;DHT22;7702;51.046;5.184;2023-08-06T02:34:33;15.30;99.90
15203;DHT22;7702;51.046;5.184;2023-08-06T02:36:58;15.30;99.90
15203;DHT22;7702;51.046;5.184;2023-08-06T02:39:24;15.30;99.90
15203;DHT22;7702;51.046;5.184;2023-08-06T02:41:50;15.40;99.90
15203;DHT22;7702;51.046;5.184;2023-08-06T02:44:16;15.40;99.90
15203;DHT22;7702;51.046;5.184;2023-08-06T02:46:43;15.40;99.90
15203;DHT22;7702;51.046;5.184;2023-08-06T02:49:10;15.40;99.90
15203;DHT22;7702;51.046;5.184;2023-08-06T02:51:35;15.40;99.90
15203;DHT22;7702;51.046;5.184;2023-08-06T02:54:01;15.40;99.90
15203;DHT22;7702;51.046;5.184;2023-08-06T02:56:27;15.40;99.90
15203;DHT22;7702;51.046;5.184;2023-08-06T02:58:52;15.40;99.90
15203;DHT22;7702;51.046;5.184;2023-08-06T03:01:18;15.40;99.90
15203;DHT22;7702;51.046;5.184;2023-08-06T03:03:44;15.40;99.90
15203;DHT22;7702;51.046;5.184;2023-08-06T03:06:10;15.40;99.90
15203;DHT22;7702;51.046;5.184;2023-08-06T03:08:36;15.50;99.90
15203;DHT22;7702;51.046;5.184;2023-08-06T03:11:01;15.40;99.90
15203;DHT22;7702;51.046;5.184;2023-08-06T03:13:27;15.40;99.90
15203;DHT22;7702;51.046;5.184;2023-08-06T03:15:58;15.40;99.90
15203;DHT22;7702;51.046;5.184;2023-08-06T03:18:24;15.40;99.90
15203;DHT22;7702;51.046;5.184;2023-08-06T03:20:51;15.40;99.90
15203;DHT22;7702;51.046;5.184;2023-08-06T03:23:17;15.50;99.90
15203;DHT22;7702;51.046;5.184;2023-08-06T03:25:43;15.50;99.90
15203;DHT22;7702;51.046;5.184;2023-08-06T03:28:10;15.50;99.90
15203;DHT22;7702;51.046;5.184;2023-08-06T03:30:36;15.50;99.90
15203;DHT22;7702;51.046;5.184;2023-08-06T03:33:02;15.40;99.90
15203;DHT22;7702;51.046;5.184;2023-08-06T03:35:27;15.50;99.90
15203;DHT22;7702;51.046;5.184;2023-08-06T03:37:53;15.50;99.90
15203;DHT22;7702;51.046;5.184;2023-08-06T03:40:19;15.50;99.90
15203;DHT22;7702;51.046;5.184;2023-08-06T03:42:45;15.60;99.90
15203;DHT22;7702;51.046;5.184;2023-08-06T03:45:10;15.50;99.90
15203;DHT22;7702;51.046;5.184;2023-08-06T03:47:36;15.50;99.90
15203;DHT22;7702;51.046;5.184;2023-08-06T03:50:02;15.50;99.90
15203;DHT22;7702;51.046;5.184;2023-08-06T03:52:27;15.50;99.90
15203;DHT22;7702;51.046;5.184;2023-08-06T03:54:53;15.60;99.90
15203;DHT22;7702;51.046;5.184;2023-08-06T03:57:19;15.50;99.90
15203;DHT22;7702;51.046;5.184;2023-08-06T03:59:45;15.50;99.90
15203;DHT22;7702;51.046;5.184;2023-08-06T04:02:10;15.50;99.90
15203;DHT22;7702;51.046;5.184;2023-08-06T04:04:36;15.50;99.90
15203;DHT22;7702;51.046;5.184;2023-08-06T04:07:02;15.60;99.90
15203;DHT22;7702;51.046;5.184;2023-08-06T04:09:28;15.50;99.90
15203;DHT22;7702;51.046;5.184;2023-08-06T04:11:54;15.60;99.90
15203;DHT22;7702;51.046;5.184;2023-08-06T04:14:20;15.50;99.90
15203;DHT22;7702;51.046;5.184;2023-08-06T04:16:45;15.50;99.90
15203;DHT22;7702;51.046;5.184;2023-08-06T04:19:12;15.60;99.90
15203;DHT22;7702;51.046;5.184;2023-08-06T04:21:37;15.50;99.90
15203;DHT22;7702;51.046;5.184;2023-08-06T04:24:03;15.60;99.90
15203;DHT22;7702;51.046;5.184;2023-08-06T04:26:29;15.60;99.90
15203;DHT22;7702;51.046;5.184;2023-08-06T04:28:54;15.60;99.90
15203;DHT22;7702;51.046;5.184;2023-08-06T04:31:21;15.60;99.90
15203;DHT22;7702;51.046;5.184;2023-08-06T04:33:46;15.50;99.90
15203;DHT22;7702;51.046;5.184;2023-08-06T04:36:12;15.50;99.90
15203;DHT22;7702;51.046;5.184;2023-08-06T04:38:38;15.60;99.90
15203;DHT22;7702;51.046;5.184;2023-08-06T04:41:04;15.60;99.90
15203;DHT22;7702;51.046;5.184;2023-08-06T04:43:29;15.60;99.90
15203;DHT22;7702;51.046;5.184;2023-08-06T04:45:55;15.60;99.90
15203;DHT22;7702;51.046;5.184;2023-08-06T04:48:22;15.60;99.90
15203;DHT22;7702;51.046;5.184;2023-08-06T04:50:50;15.60;99.90
15203;DHT22;7702;51.046;5.184;2023-08-06T04:53:16;15.50;99.90
15203;DHT22;7702;51.046;5.184;2023-08-06T04:55:42;15.50;99.90
15203;DHT22;7702;51.046;5.184;2023-08-06T04:58:10;15.50;99.90
15203;DHT22;7702;51.046;5.184;2023-08-06T05:00:36;15.50;99.90
15203;DHT22;7702;51.046;5.184;2023-08-06T05:03:02;15.50;99.90
15203;DHT22;7702;51.046;5.184;2023-08-06T05:05:28;15.40;99.90
15203;DHT22;7702;51.046;5.184;2023-08-06T05:07:55;15.40;99.90
15203;DHT22;7702;51.046;5.184;2023-08-06T05:10:27;15.40;99.90
15203;DHT22;7702;51.046;5.184;2023-08-06T05:12:53;15.40;99.90
15203;DHT22;7702;51.046;5.184;2023-08-06T05:15:19;15.30;99.90
15203;DHT22;7702;51.046;5.184;2023-08-06T05:17:44;15.30;99.90
15203;DHT22;7702;51.046;5.184;2023-08-06T05:20:11;15.30;99.90
15203;DHT22;7702;51.046;5.184;2023-08-06T05:22:36;15.40;99.90
15203;DHT22;7702;51.046;5.184;2023-08-06T05:25:02;15.40;99.90
15203;DHT22;7702;51.046;5.184;2023-08-06T05:27:28;15.30;99.90
15203;DHT22;7702;51.046;5.184;2023-08-06T05:29:57;15.30;99.90
15203;DHT22;7702;51.046;5.184;2023-08-06T05:32:23;15.30;99.90
15203;DHT22;7702;51.046;5.184;2023-08-06T05:34:48;15.20;99.90
15203;DHT22;7702;51.046;5.184;2023-08-06T05:37:14;15.20;99.90
15203;DHT22;7702;51.046;5.184;2023-08-06T05:39:40;15.20;99.90
15203;DHT22;7702;51.046;5.184;2023-08-06T05:42:06;15.10;99.90
15203;DHT22;7702;51.046;5.184;2023-08-06T05:44:32;15.10;99.90
15203;DHT22;7702;51.046;5.184;2023-08-06T05:46:57;15.10;99.90
15203;DHT22;7702;51.046;5.184;2023-08-06T05:49:23;15.10;99.90
15203;DHT22;7702;51.046;5.184;2023-08-06T05:51:49;15.10;99.90
15203;DHT22;7702;51.046;5.184;2023-08-06T05:54:14;15.10;99.90
15203;DHT22;7702;51.046;5.184;2023-08-06T05:56:40;15.00;99.90
15203;DHT22;7702;51.046;5.184;2023-08-06T05:59:06;15.00;99.90
15203;DHT22;7702;51.046;5.184;2023-08-06T06:01:31;14.90;99.90
15203;DHT22;7702;51.046;5.184;2023-08-06T06:03:57;14.80;99.90
15203;DHT22;7702;51.046;5.184;2023-08-06T06:06:23;14.80;99.90
15203;DHT22;7702;51.046;5.184;2023-08-06T06:08:49;14.80;99.90
15203;DHT22;7702;51.046;5.184;2023-08-06T06:11:15;14.70;99.90
15203;DHT22;7702;51.046;5.184;2023-08-06T06:13:40;14.50;99.90
15203;DHT22;7702;51.046;5.184;2023-08-06T06:16:06;14.40;99.90
15203;DHT22;7702;51.046;5.184;2023-08-06T06:18:32;14.30;99.90
15203;DHT22;7702;51.046;5.184;2023-08-06T06:20:58;14.20;99.90
15203;DHT22;7702;51.046;5.184;2023-08-06T06:23:24;14.10;99.90
15203;DHT22;7702;51.046;5.184;2023-08-06T06:25:50;14.10;99.90
15203;DHT22;7702;51.046;5.184;2023-08-06T06:28:18;14.10;99.90
15203;DHT22;7702;51.046;5.184;2023-08-06T06:30:43;14.10;99.90
15203;DHT22;7702;51.046;5.184;2023-08-06T06:33:09;14.00;99.90
15203;DHT22;7702;51.046;5.184;2023-08-06T06:35:35;14.00;99.90
15203;DHT22;7702;51.046;5.184;2023-08-06T06:38:01;14.00;99.90
15203;DHT22;7702;51.046;5.184;2023-08-06T06:40:26;14.00;99.90
15203;DHT22;7702;51.046;5.184;2023-08-06T06:42:52;13.90;99.90
15203;DHT22;7702;51.046;5.184;2023-08-06T06:45:18;13.90;99.90
15203;DHT22;7702;51.046;5.184;2023-08-06T06:47:44;14.00;99.90
15203;DHT22;7702;51.046;5.184;2023-08-06T06:50:10;14.00;99.90
15203;DHT22;7702;51.046;5.184;2023-08-06T06:52:35;14.00;99.90
15203;DHT22;7702;51.046;5.184;2023-08-06T06:55:01;14.00;99.90
15203;DHT22;7702;51.046;5.184;2023-08-06T06:57:27;14.00;99.90
15203;DHT22;7702;51.046;5.184;2023-08-06T06:59:53;14.10;99.90
15203;DHT22;7702;51.046;5.184;2023-08-06T07:02:19;14.20;99.90
15203;DHT22;7702;51.046;5.184;2023-08-06T07:04:45;14.20;99.90
15203;DHT22;7702;51.046;5.184;2023-08-06T07:07:10;14.20;99.90
15203;DHT22;7702;51.046;5.184;2023-08-06T07:09:36;14.20;99.90
15203;DHT22;7702;51.046;5.184;2023-08-06T07:12:02;14.30;99.90
15203;DHT22;7702;51.046;5.184;2023-08-06T07:14:28;14.30;99.90
15203;DHT22;7702;51.046;5.184;2023-08-06T07:16:54;14.20;99.90
15203;DHT22;7702;51.046;5.184;2023-08-06T07:19:20;14.20;99.90
15203;DHT22;7702;51.046;5.184;2023-08-06T07:21:46;14.20;99.90
15203;DHT22;7702;51.046;5.184;2023-08-06T07:24:11;14.20;99.90
15203;DHT22;7702;51.046;5.184;2023-08-06T07:26:37;14.20;99.90
15203;DHT22;7702;51.046;5.184;2023-08-06T07:29:03;14.10;99.90
15203;DHT22;7702;51.046;5.184;2023-08-06T07:31:29;14.10;99.90
15203;DHT22;7702;51.046;5.184;2023-08-06T07:33:55;14.00;99.90
15203;DHT22;7702;51.046;5.184;2023-08-06T07:36:21;14.00;99.90
15203;DHT22;7702;51.046;5.184;2023-08-06T07:38:46;14.10;99.90
15203;DHT22;7702;51.046;5.184;2023-08-06T07:41:14;14.00;99.90
15203;DHT22;7702;51.046;5.184;2023-08-06T07:43:39;14.00;99.90
15203;DHT22;7702;51.046;5.184;2023-08-06T07:46:05;14.00;99.90
15203;DHT22;7702;51.046;5.184;2023-08-06T07:48:31;14.00;99.90
15203;DHT22;7702;51.046;5.184;2023-08-06T07:50:57;14.00;99.90
15203;DHT22;7702;51.046;5.184;2023-08-06T07:53:23;14.00;99.90
15203;DHT22;7702;51.046;5.184;2023-08-06T07:55:53;14.00;99.90
15203;DHT22;7702;51.046;5.184;2023-08-06T07:58:19;14.00;99.90
15203;DHT22;7702;51.046;5.184;2023-08-06T08:00:46;14.00;99.90
15203;DHT22;7702;51.046;5.184;2023-08-06T08:03:13;14.00;99.90
15203;DHT22;7702;51.046;5.184;2023-08-06T08:05:40;14.10;99.90
15203;DHT22;7702;51.046;5.184;2023-08-06T08:08:06;14.00;99.90
15203;DHT22;7702;51.046;5.184;2023-08-06T08:10:33;14.10;99.90
15203;DHT22;7702;51.046;5.184;2023-08-06T08:12:58;14.10;99.90
15203;DHT22;7702;51.046;5.184;2023-08-06T08:15:29;14.20;99.90
15203;DHT22;7702;51.046;5.184;2023-08-06T08:17:54;14.20;99.90
15203;DHT22;7702;51.046;5.184;2023-08-06T08:20:20;14.30;99.90
15203;DHT22;7702;51.046;5.184;2023-08-06T08:22:46;14.30;99.90
15203;DHT22;7702;51.046;5.184;2023-08-06T08:25:12;14.40;99.90
15203;DHT22;7702;51.046;5.184;2023-08-06T08:27:38;14.40;99.90
15203;DHT22;7702;51.046;5.184;2023-08-06T08:30:04;14.40;99.90
15203;DHT22;7702;51.046;5.184;2023-08-06T08:32:30;14.50;99.90
15203;DHT22;7702;51.046;5.184;2023-08-06T08:34:56;14.60;99.90
15203;DHT22;7702;51.046;5.184;2023-08-06T08:37:22;14.60;99.90
15203;DHT22;7702;51.046;5.184;2023-08-06T08:39:48;14.60;99.90
15203;DHT22;7702;51.046;5.184;2023-08-06T08:42:15;14.70;99.90
15203;DHT22;7702;51.046;5.184;2023-08-06T08:44:42;14.70;99.90
15203;DHT22;7702;51.046;5.184;2023-08-06T08:47:09;14.70;99.90
15203;DHT22;7702;51.046;5.184;2023-08-06T08:49:36;14.70;99.90
15203;DHT22;7702;51.046;5.184;2023-08-06T08:52:03;14.70;99.90
15203;DHT22;7702;51.046;5.184;2023-08-06T08:54:32;14.80;99.90
15203;DHT22;7702;51.046;5.184;2023-08-06T08:56:59;14.90;99.90
15203;DHT22;7702;51.046;5.184;2023-08-06T08:59:26;15.00;99.90
15203;DHT22;7702;51.046;5.184;2023-08-06T09:01:52;15.00;99.90
15203;DHT22;7702;51.046;5.184;2023-08-06T09:04:19;15.00;99.90
15203;DHT22;7702;51.046;5.184;2023-08-06T09:06:48;15.10;99.90
15203;DHT22;7702;51.046;5.184;2023-08-06T09:09:26;15.10;99.90
15203;DHT22;7702;51.046;5.184;2023-08-06T09:11:52;15.00;99.90
15203;DHT22;7702;51.046;5.184;2023-08-06T09:14:20;15.10;99.90
15203;DHT22;7702;51.046;5.184;2023-08-06T09:16:47;15.20;99.90
15203;DHT22;7702;51.046;5.184;2023-08-06T09:19:13;15.20;99.90
15203;DHT22;7702;51.046;5.184;2023-08-06T09:21:42;15.00;99.90
15203;DHT22;7702;51.046;5.184;2023-08-06T09:24:12;14.90;99.90
15203;DHT22;7702;51.046;5.184;2023-08-06T09:26:41;14.90;99.90
15203;DHT22;7702;51.046;5.184;2023-08-06T09:29:09;14.80;99.90
15203;DHT22;7702;51.046;5.184;2023-08-06T09:31:45;14.80;99.90
15203;DHT22;7702;51.046;5.184;2023-08-06T09:34:18;14.80;99.90
15203;DHT22;7702;51.046;5.184;2023-08-06T09:36:49;14.80;99.90
15203;DHT22;7702;51.046;5.184;2023-08-06T09:39:20;14.70;99.90
15203;DHT22;7702;51.046;5.184;2023-08-06T09:41:47;14.80;99.90
15203;DHT22;7702;51.046;5.184;2023-08-06T09:44:18;14.80;99.90
15203;DHT22;7702;51.046;5.184;2023-08-06T09:46:48;14.80;99.90
15203;DHT22;7702;51.046;5.184;2023-08-06T09:49:15;14.80;99.90
15203;DHT22;7702;51.046;5.184;2023-08-06T09:51:41;14.90;99.90
15203;DHT22;7702;51.046;5.184;2023-08-06T09:54:07;14.90;99.90
15203;DHT22;7702;51.046;5.184;2023-08-06T09:56:34;15.00;99.90
15203;DHT22;7702;51.046;5.184;2023-08-06T09:59:04;15.00;99.90
15203;DHT22;7702;51.046;5.184;2023-08-06T10:01:35;14.90;99.90
15203;DHT22;7702;51.046;5.184;2023-08-06T10:04:06;14.90;99.90
15203;DHT22;7702;51.046;5.184;2023-08-06T10:06:37;15.00;99.90
15203;DHT22;7702;51.046;5.184;2023-08-06T10:09:06;15.00;99.90
15203;DHT22;7702;51.046;5.184;2023-08-06T10:11:33;15.00;99.90
15203;DHT22;7702;51.046;5.184;2023-08-06T10:14:09;15.00;99.90
15203;DHT22;7702;51.046;5.184;2023-08-06T10:16:37;15.10;99.90
15203;DHT22;7702;51.046;5.184;2023-08-06T10:19:04;15.10;99.90
15203;DHT22;7702;51.046;5.184;2023-08-06T10:21:31;15.20;99.90
15203;DHT22;7702;51.046;5.184;2023-08-06T10:23:57;15.10;99.90
15203;DHT22;7702;51.046;5.184;2023-08-06T10:26:27;15.10;99.90
15203;DHT22;7702;51.046;5.184;2023-08-06T10:28:53;15.10;99.90
15203;DHT22;7702;51.046;5.184;2023-08-06T10:31:19;14.90;99.90
15203;DHT22;7702;51.046;5.184;2023-08-06T10:33:46;14.80;99.90
15203;DHT22;7702;51.046;5.184;2023-08-06T10:36:13;14.80;99.90
15203;DHT22;7702;51.046;5.184;2023-08-06T10:38:47;14.90;99.90
15203;DHT22;7702;51.046;5.184;2023-08-06T10:41:29;14.80;99.90
15203;DHT22;7702;51.046;5.184;2023-08-06T10:44:08;14.70;99.90
15203;DHT22;7702;51.046;5.184;2023-08-06T10:46:34;14.70;99.90
15203;DHT22;7702;51.046;5.184;2023-08-06T10:49:01;14.60;99.90
15203;DHT22;7702;51.046;5.184;2023-08-06T10:51:26;14.70;99.90
15203;DHT22;7702;51.046;5.184;2023-08-06T10:53:53;14.60;99.90
15203;DHT22;7702;51.046;5.184;2023-08-06T10:56:23;14.60;99.90
15203;DHT22;7702;51.046;5.184;2023-08-06T10:58:52;14.70;99.90
15203;DHT22;7702;51.046;5.184;2023-08-06T11:01:19;14.70;99.90
15203;DHT22;7702;51.046;5.184;2023-08-06T11:03:47;14.70;99.90
15203;DHT22;7702;51.046;5.184;2023-08-06T11:06:22;14.80;99.90
15203;DHT22;7702;51.046;5.184;2023-08-06T11:08:53;14.90;99.90
15203;DHT22;7702;51.046;5.184;2023-08-06T11:11:19;15.00;99.90
15203;DHT22;7702;51.046;5.184;2023-08-06T11:13:46;15.00;99.90
15203;DHT22;7702;51.046;5.184;2023-08-06T11:16:17;14.90;99.90
15203;DHT22;7702;51.046;5.184;2023-08-06T11:18:43;14.80;99.90
15203;DHT22;7702;51.046;5.184;2023-08-06T11:21:09;14.90;99.90
15203;DHT22;7702;51.046;5.184;2023-08-06T11:23:37;14.90;99.90
15203;DHT22;7702;51.046;5.184;2023-08-06T11:26:03;14.80;99.90
15203;DHT22;7702;51.046;5.184;2023-08-06T11:28:29;14.90;99.90
15203;DHT22;7702;51.046;5.184;2023-08-06T11:30:54;14.90;99.90
15203;DHT22;7702;51.046;5.184;2023-08-06T11:33:27;14.90;99.90
15203;DHT22;7702;51.046;5.184;2023-08-06T11:35:54;15.00;99.90
15203;DHT22;7702;51.046;5.184;2023-08-06T11:38:20;15.10;99.90
15203;DHT22;7702;51.046;5.184;2023-08-06T11:40:50;15.20;99.90
15203;DHT22;7702;51.046;5.184;2023-08-06T11:43:20;15.20;99.90
15203;DHT22;7702;51.046;5.184;2023-08-06T11:45:48;15.40;99.90
15203;DHT22;7702;51.046;5.184;2023-08-06T11:48:14;15.50;99.90
15203;DHT22;7702;51.046;5.184;2023-08-06T11:50:40;15.50;99.90
15203;DHT22;7702;51.046;5.184;2023-08-06T11:53:06;15.40;99.90
15203;DHT22;7702;51.046;5.184;2023-08-06T11:55:32;15.40;99.90
15203;DHT22;7702;51.046;5.184;2023-08-06T11:57:58;15.30;99.90
15203;DHT22;7702;51.046;5.184;2023-08-06T12:00:25;15.10;99.90
15203;DHT22;7702;51.046;5.184;2023-08-06T12:02:51;15.10;99.90
15203;DHT22;7702;51.046;5.184;2023-08-06T12:05:18;15.20;99.90
15203;DHT22;7702;51.046;5.184;2023-08-06T12:07:56;15.20;99.90
15203;DHT22;7702;51.046;5.184;2023-08-06T12:10:25;15.10;99.90
15203;DHT22;7702;51.046;5.184;2023-08-06T12:12:51;15.20;99.90
15203;DHT22;7702;51.046;5.184;2023-08-06T12:15:17;15.40;99.90
15203;DHT22;7702;51.046;5.184;2023-08-06T12:17:43;15.30;99.90
15203;DHT22;7702;51.046;5.184;2023-08-06T12:20:09;15.00;99.90
15203;DHT22;7702;51.046;5.184;2023-08-06T12:22:36;14.90;99.90
15203;DHT22;7702;51.046;5.184;2023-08-06T12:25:05;14.80;99.90
15203;DHT22;7702;51.046;5.184;2023-08-06T12:27:35;14.70;99.90
15203;DHT22;7702;51.046;5.184;2023-08-06T12:30:01;14.80;99.90
15203;DHT22;7702;51.046;5.184;2023-08-06T12:32:26;14.70;99.90
15203;DHT22;7702;51.046;5.184;2023-08-06T12:34:52;14.80;99.90
15203;DHT22;7702;51.046;5.184;2023-08-06T12:37:18;15.00;99.90
15203;DHT22;7702;51.046;5.184;2023-08-06T12:39:43;14.90;99.90
15203;DHT22;7702;51.046;5.184;2023-08-06T12:42:09;14.90;99.90
15203;DHT22;7702;51.046;5.184;2023-08-06T12:44:36;15.00;99.90
15203;DHT22;7702;51.046;5.184;2023-08-06T12:47:02;14.90;99.90
15203;DHT22;7702;51.046;5.184;2023-08-06T12:49:28;14.80;99.90
15203;DHT22;7702;51.046;5.184;2023-08-06T12:51:55;14.70;99.90
15203;DHT22;7702;51.046;5.184;2023-08-06T12:54:22;14.60;99.90
15203;DHT22;7702;51.046;5.184;2023-08-06T12:56:48;14.70;99.90
15203;DHT22;7702;51.046;5.184;2023-08-06T12:59:15;14.80;99.90
15203;DHT22;7702;51.046;5.184;2023-08-06T13:01:43;14.80;99.90
15203;DHT22;7702;51.046;5.184;2023-08-06T13:04:09;14.90;99.90
15203;DHT22;7702;51.046;5.184;2023-08-06T13:06:35;14.90;99.90
15203;DHT22;7702;51.046;5.184;2023-08-06T13:09:12;14.90;99.90
15203;DHT22;7702;51.046;5.184;2023-08-06T13:11:39;14.80;99.90
15203;DHT22;7702;51.046;5.184;2023-08-06T13:14:10;14.80;99.90
15203;DHT22;7702;51.046;5.184;2023-08-06T13:16:37;14.80;99.90
15203;DHT22;7702;51.046;5.184;2023-08-06T13:19:04;14.90;99.90
15203;DHT22;7702;51.046;5.184;2023-08-06T13:24:03;14.90;99.90
15203;DHT22;7702;51.046;5.184;2023-08-06T13:26:30;15.00;99.90
15203;DHT22;7702;51.046;5.184;2023-08-06T13:28:57;15.00;99.90
15203;DHT22;7702;51.046;5.184;2023-08-06T13:31:23;14.80;99.90
15203;DHT22;7702;51.046;5.184;2023-08-06T13:33:48;14.90;99.90
15203;DHT22;7702;51.046;5.184;2023-08-06T13:36:16;15.00;99.90
15203;DHT22;7702;51.046;5.184;2023-08-06T13:38:41;14.90;99.90
15203;DHT22;7702;51.046;5.184;2023-08-06T13:41:07;14.80;99.90
15203;DHT22;7702;51.046;5.184;2023-08-06T13:43:33;14.70;99.90
15203;DHT22;7702;51.046;5.184;2023-08-06T13:45:59;14.70;99.90
15203;DHT22;7702;51.046;5.184;2023-08-06T13:48:25;14.50;99.90
15203;DHT22;7702;51.046;5.184;2023-08-06T13:50:50;14.50;99.90
15203;DHT22;7702;51.046;5.184;2023-08-06T13:53:16;14.40;99.90
15203;DHT22;7702;51.046;5.184;2023-08-06T13:55:42;14.40;99.90
15203;DHT22;7702;51.046;5.184;2023-08-06T13:58:07;14.50;99.90
15203;DHT22;7702;51.046;5.184;2023-08-06T14:00:35;14.50;99.90
15203;DHT22;7702;51.046;5.184;2023-08-06T14:03:01;14.50;99.90
15203;DHT22;7702;51.046;5.184;2023-08-06T14:05:27;14.50;99.90
15203;DHT22;7702;51.046;5.184;2023-08-06T14:07:53;14.60;99.90
15203;DHT22;7702;51.046;5.184;2023-08-06T14:10:19;14.70;99.90
15203;DHT22;7702;51.046;5.184;2023-08-06T14:12:44;14.80;99.90
15203;DHT22;7702;51.046;5.184;2023-08-06T14:15:11;14.90;99.90
15203;DHT22;7702;51.046;5.184;2023-08-06T14:17:36;14.90;99.90
15203;DHT22;7702;51.046;5.184;2023-08-06T14:20:03;15.00;99.90
15203;DHT22;7702;51.046;5.184;2023-08-06T14:22:30;15.00;99.90
15203;DHT22;7702;51.046;5.184;2023-08-06T14:24:59;15.00;99.90
15203;DHT22;7702;51.046;5.184;2023-08-06T14:27:25;15.00;99.90
15203;DHT22;7702;51.046;5.184;2023-08-06T14:29:50;15.10;99.90
15203;DHT22;7702;51.046;5.184;2023-08-06T14:32:16;14.80;99.90
15203;DHT22;7702;51.046;5.184;2023-08-06T14:34:44;14.80;99.90
15203;DHT22;7702;51.046;5.184;2023-08-06T14:37:10;14.70;99.90
15203;DHT22;7702;51.046;5.184;2023-08-06T14:39:36;14.50;99.90
15203;DHT22;7702;51.046;5.184;2023-08-06T14:42:02;14.40;99.90
15203;DHT22;7702;51.046;5.184;2023-08-06T14:44:28;14.30;99.90
15203;DHT22;7702;51.046;5.184;2023-08-06T14:46:54;14.20;99.90
15203;DHT22;7702;51.046;5.184;2023-08-06T14:49:20;14.10;99.90
15203;DHT22;7702;51.046;5.184;2023-08-06T14:51:46;14.00;99.90
15203;DHT22;7702;51.046;5.184;2023-08-06T14:54:11;14.00;99.90
15203;DHT22;7702;51.046;5.184;2023-08-06T14:56:37;13.90;99.90
15203;DHT22;7702;51.046;5.184;2023-08-06T14:59:03;13.80;99.90
15203;DHT22;7702;51.046;5.184;2023-08-06T15:01:30;13.80;99.90
15203;DHT22;7702;51.046;5.184;2023-08-06T15:03:55;13.90;99.90
15203;DHT22;7702;51.046;5.184;2023-08-06T15:06:21;13.90;99.90
15203;DHT22;7702;51.046;5.184;2023-08-06T15:08:46;13.80;99.90
15203;DHT22;7702;51.046;5.184;2023-08-06T15:11:14;13.70;99.90
15203;DHT22;7702;51.046;5.184;2023-08-06T15:13:40;13.90;99.90
15203;DHT22;7702;51.046;5.184;2023-08-06T15:16:06;13.90;99.90
15203;DHT22;7702;51.046;5.184;2023-08-06T15:18:31;14.00;99.90
15203;DHT22;7702;51.046;5.184;2023-08-06T15:20:57;14.00;99.90
15203;DHT22;7702;51.046;5.184;2023-08-06T15:23:23;14.20;99.90
15203;DHT22;7702;51.046;5.184;2023-08-06T15:25:49;14.20;99.90
15203;DHT22;7702;51.046;5.184;2023-08-06T15:28:15;14.30;99.90
15203;DHT22;7702;51.046;5.184;2023-08-06T15:30:49;14.20;99.90
15203;DHT22;7702;51.046;5.184;2023-08-06T15:33:15;14.20;99.90
15203;DHT22;7702;51.046;5.184;2023-08-06T15:35:40;14.20;99.90
15203;DHT22;7702;51.046;5.184;2023-08-06T15:38:06;14.20;99.90
15203;DHT22;7702;51.046;5.184;2023-08-06T15:40:32;14.30;99.90
15203;DHT22;7702;51.046;5.184;2023-08-06T15:42:58;14.30;99.90
15203;DHT22;7702;51.046;5.184;2023-08-06T15:45:24;14.40;99.90
15203;DHT22;7702;51.046;5.184;2023-08-06T15:47:49;14.40;99.90
15203;DHT22;7702;51.046;5.184;2023-08-06T15:50:15;14.40;99.90
15203;DHT22;7702;51.046;5.184;2023-08-06T15:52:40;14.40;99.90